sensor_id;sensor_type;location;lat;lon;timestamp;P1;durP1;ratioP1;P2;durP2;ratioP2
65035;SDS011;51603;49.300;8.880;2023-07-24T00:01:07;7.73;;;6.13;;
65035;SDS011;51603;49.300;8.880;2023-07-24T00:03:33;6.87;;;5.47;;
65035;SDS011;51603;49.300;8.880;2023-07-24T00:05:58;7.03;;;5.40;;
65035;SDS011;51603;49.300;8.880;2023-07-24T00:08:24;6.73;;;5.43;;
65035;SDS011;51603;49.300;8.880;2023-07-24T00:10:50;5.70;;;4.93;;
65035;SDS011;51603;49.300;8.880;2023-07-24T00:13:15;7.83;;;5.50;;
65035;SDS011;51603;49.300;8.880;2023-07-24T00:15:41;6.53;;;5.63;;
65035;SDS011;51603;49.300;8.880;2023-07-24T00:18:06;7.40;;;6.03;;
65035;SDS011;51603;49.300;8.880;2023-07-24T00:20:32;7.83;;;6.80;;
65035;SDS011;51603;49.300;8.880;2023-07-24T00:22:57;7.50;;;6.60;;
65035;SDS011;51603;49.300;8.880;2023-07-24T00:25:23;5.77;;;4.83;;
65035;SDS011;51603;49.300;8.880;2023-07-24T00:27:48;6.40;;;5.20;;
65035;SDS011;51603;49.300;8.880;2023-07-24T00:30:14;7.40;;;5.97;;
65035;SDS011;51603;49.300;8.880;2023-07-24T00:32:39;6.77;;;5.73;;
65035;SDS011;51603;49.300;8.880;2023-07-24T00:35:05;8.17;;;6.10;;
65035;SDS011;51603;49.300;8.880;2023-07-24T00:37:31;6.97;;;5.70;;
65035;SDS011;51603;49.300;8.880;2023-07-24T00:39:57;7.03;;;5.47;;
65035;SDS011;51603;49.300;8.880;2023-07-24T00:42:22;8.17;;;5.73;;
65035;SDS011;51603;49.300;8.880;2023-07-24T00:44:48;7.47;;;5.93;;
65035;SDS011;51603;49.300;8.880;2023-07-24T00:47:13;5.93;;;5.30;;
65035;SDS011;51603;49.300;8.880;2023-07-24T00:49:39;6.67;;;5.73;;
65035;SDS011;51603;49.300;8.880;2023-07-24T00:52:05;6.40;;;5.80;;
65035;SDS011;51603;49.300;8.880;2023-07-24T00:54:31;7.03;;;5.40;;
65035;SDS011;51603;49.300;8.880;2023-07-24T00:56:58;7.03;;;5.73;;
65035;SDS011;51603;49.300;8.880;2023-07-24T00:59:23;6.77;;;6.07;;
65035;SDS011;51603;49.300;8.880;2023-07-24T01:01:49;6.47;;;5.80;;
65035;SDS011;51603;49.300;8.880;2023-07-24T01:04:15;6.90;;;5.30;;
65035;SDS011;51603;49.300;8.880;2023-07-24T01:06:40;7.60;;;5.53;;
65035;SDS011;51603;49.300;8.880;2023-07-24T01:09:06;9.13;;;5.87;;
65035;SDS011;51603;49.300;8.880;2023-07-24T01:11:50;7.87;;;6.23;;
65035;SDS011;51603;49.300;8.880;2023-07-24T01:14:23;5.83;;;4.93;;
65035;SDS011;51603;49.300;8.880;2023-07-24T01:16:54;9.10;;;6.50;;
65035;SDS011;51603;49.300;8.880;2023-07-24T01:27:57;8.43;;;6.20;;
65035;SDS011;51603;49.300;8.880;2023-07-24T01:30:23;10.00;;;5.70;;
65035;SDS011;51603;49.300;8.880;2023-07-24T01:32:48;7.00;;;5.80;;
65035;SDS011;51603;49.300;8.880;2023-07-24T01:35:14;7.23;;;5.73;;
65035;SDS011;51603;49.300;8.880;2023-07-24T01:37:40;6.97;;;5.83;;
65035;SDS011;51603;49.300;8.880;2023-07-24T01:40:08;9.03;;;5.63;;
65035;SDS011;51603;49.300;8.880;2023-07-24T01:42:35;8.57;;;5.90;;
65035;SDS011;51603;49.300;8.880;2023-07-24T01:45:02;6.93;;;5.90;;
65035;SDS011;51603;49.300;8.880;2023-07-24T01:47:28;8.03;;;5.57;;
65035;SDS011;51603;49.300;8.880;2023-07-24T01:49:55;7.40;;;6.30;;
65035;SDS011;51603;49.300;8.880;2023-07-24T01:52:21;7.10;;;6.40;;
65035;SDS011;51603;49.300;8.880;2023-07-24T01:54:46;5.50;;;4.80;;
65035;SDS011;51603;49.300;8.880;2023-07-24T01:57:12;6.00;;;5.30;;
65035;SDS011;51603;49.300;8.880;2023-07-24T01:59:37;7.90;;;5.57;;
65035;SDS011;51603;49.300;8.880;2023-07-24T02:02:03;7.07;;;6.17;;
65035;SDS011;51603;49.300;8.880;2023-07-24T02:04:28;7.53;;;6.03;;
65035;SDS011;51603;49.300;8.880;2023-07-24T02:06:54;6.13;;;5.40;;
65035;SDS011;51603;49.300;8.880;2023-07-24T02:09:19;8.73;;;6.40;;
65035;SDS011;51603;49.300;8.880;2023-07-24T02:11:45;7.47;;;6.23;;
65035;SDS011;51603;49.300;8.880;2023-07-24T02:14:11;7.43;;;5.43;;
65035;SDS011;51603;49.300;8.880;2023-07-24T02:16:38;6.13;;;5.30;;
65035;SDS011;51603;49.300;8.880;2023-07-24T02:19:03;6.37;;;5.17;;
65035;SDS011;51603;49.300;8.880;2023-07-24T02:21:29;6.50;;;5.43;;
65035;SDS011;51603;49.300;8.880;2023-07-24T02:23:55;6.80;;;6.07;;
65035;SDS011;51603;49.300;8.880;2023-07-24T02:26:20;6.33;;;5.47;;
65035;SDS011;51603;49.300;8.880;2023-07-24T02:28:46;8.87;;;6.10;;
65035;SDS011;51603;49.300;8.880;2023-07-24T02:31:11;6.93;;;5.60;;
65035;SDS011;51603;49.300;8.880;2023-07-24T02:33:37;6.20;;;5.60;;
65035;SDS011;51603;49.300;8.880;2023-07-24T02:36:02;8.70;;;5.10;;
65035;SDS011;51603;49.300;8.880;2023-07-24T02:38:28;6.17;;;5.30;;
65035;SDS011;51603;49.300;8.880;2023-07-24T02:40:54;7.73;;;5.83;;
65035;SDS011;51603;49.300;8.880;2023-07-24T02:43:19;6.23;;;5.50;;
65035;SDS011;51603;49.300;8.880;2023-07-24T02:45:45;6.93;;;6.07;;
65035;SDS011;51603;49.300;8.880;2023-07-24T02:48:10;6.77;;;5.40;;
65035;SDS011;51603;49.300;8.880;2023-07-24T02:50:36;7.53;;;5.73;;
65035;SDS011;51603;49.300;8.880;2023-07-24T02:53:01;7.10;;;6.10;;
65035;SDS011;51603;49.300;8.880;2023-07-24T02:55:27;5.80;;;5.20;;
65035;SDS011;51603;49.300;8.880;2023-07-24T02:57:53;8.37;;;5.87;;
65035;SDS011;51603;49.300;8.880;2023-07-24T03:00:18;5.53;;;5.03;;
65035;SDS011;51603;49.300;8.880;2023-07-24T03:02:44;8.07;;;6.87;;
65035;SDS011;51603;49.300;8.880;2023-07-24T03:05:10;7.43;;;6.00;;
65035;SDS011;51603;49.300;8.880;2023-07-24T03:07:35;8.53;;;6.50;;
65035;SDS011;51603;49.300;8.880;2023-07-24T03:10:01;8.43;;;6.47;;
65035;SDS011;51603;49.300;8.880;2023-07-24T03:12:27;7.33;;;6.17;;
65035;SDS011;51603;49.300;8.880;2023-07-24T03:14:52;6.80;;;5.50;;
65035;SDS011;51603;49.300;8.880;2023-07-24T03:17:18;7.40;;;6.17;;
65035;SDS011;51603;49.300;8.880;2023-07-24T03:19:43;6.47;;;5.50;;
65035;SDS011;51603;49.300;8.880;2023-07-24T03:22:09;8.10;;;6.17;;
65035;SDS011;51603;49.300;8.880;2023-07-24T03:24:35;6.40;;;5.80;;
65035;SDS011;51603;49.300;8.880;2023-07-24T03:27:00;7.10;;;6.37;;
65035;SDS011;51603;49.300;8.880;2023-07-24T03:29:26;9.20;;;6.60;;
65035;SDS011;51603;49.300;8.880;2023-07-24T03:31:52;9.63;;;6.27;;
65035;SDS011;51603;49.300;8.880;2023-07-24T03:34:18;7.20;;;5.77;;
65035;SDS011;51603;49.300;8.880;2023-07-24T03:36:43;7.60;;;5.63;;
65035;SDS011;51603;49.300;8.880;2023-07-24T03:39:09;8.00;;;6.70;;
65035;SDS011;51603;49.300;8.880;2023-07-24T03:41:36;6.80;;;6.20;;
65035;SDS011;51603;49.300;8.880;2023-07-24T03:44:01;7.53;;;6.23;;
65035;SDS011;51603;49.300;8.880;2023-07-24T03:46:27;7.50;;;5.57;;
65035;SDS011;51603;49.300;8.880;2023-07-24T03:48:52;9.07;;;6.37;;
65035;SDS011;51603;49.300;8.880;2023-07-24T03:51:18;10.30;;;6.43;;
65035;SDS011;51603;49.300;8.880;2023-07-24T03:53:43;6.77;;;5.43;;
65035;SDS011;51603;49.300;8.880;2023-07-24T03:56:09;7.30;;;6.40;;
65035;SDS011;51603;49.300;8.880;2023-07-24T03:58:34;7.70;;;6.60;;
65035;SDS011;51603;49.300;8.880;2023-07-24T04:01:00;8.20;;;6.00;;
65035;SDS011;51603;49.300;8.880;2023-07-24T04:03:25;8.30;;;6.83;;
65035;SDS011;51603;49.300;8.880;2023-07-24T04:05:51;9.40;;;7.07;;
65035;SDS011;51603;49.300;8.880;2023-07-24T04:08:16;6.77;;;6.13;;
65035;SDS011;51603;49.300;8.880;2023-07-24T04:10:42;11.27;;;6.77;;
65035;SDS011;51603;49.300;8.880;2023-07-24T04:13:07;9.27;;;7.00;;
65035;SDS011;51603;49.300;8.880;2023-07-24T04:15:33;6.30;;;5.70;;
65035;SDS011;51603;49.300;8.880;2023-07-24T04:17:58;9.50;;;7.57;;
65035;SDS011;51603;49.300;8.880;2023-07-24T04:20:24;8.67;;;7.73;;
65035;SDS011;51603;49.300;8.880;2023-07-24T04:22:49;9.67;;;7.40;;
65035;SDS011;51603;49.300;8.880;2023-07-24T04:25:15;8.03;;;7.23;;
65035;SDS011;51603;49.300;8.880;2023-07-24T04:27:40;7.97;;;7.10;;
65035;SDS011;51603;49.300;8.880;2023-07-24T04:30:06;8.33;;;6.53;;
65035;SDS011;51603;49.300;8.880;2023-07-24T04:32:32;9.27;;;7.20;;
65035;SDS011;51603;49.300;8.880;2023-07-24T04:34:58;8.27;;;6.27;;
65035;SDS011;51603;49.300;8.880;2023-07-24T04:37:23;8.37;;;7.30;;
65035;SDS011;51603;49.300;8.880;2023-07-24T04:39:49;7.90;;;6.97;;
65035;SDS011;51603;49.300;8.880;2023-07-24T04:42:14;8.83;;;7.20;;
65035;SDS011;51603;49.300;8.880;2023-07-24T04:44:40;7.97;;;7.03;;
65035;SDS011;51603;49.300;8.880;2023-07-24T04:47:05;9.37;;;7.03;;
65035;SDS011;51603;49.300;8.880;2023-07-24T04:49:31;8.63;;;6.47;;
65035;SDS011;51603;49.300;8.880;2023-07-24T04:51:57;11.30;;;8.23;;
65035;SDS011;51603;49.300;8.880;2023-07-24T04:54:23;10.90;;;8.50;;
65035;SDS011;51603;49.300;8.880;2023-07-24T04:56:49;9.70;;;8.17;;
65035;SDS011;51603;49.300;8.880;2023-07-24T04:59:14;8.93;;;6.80;;
65035;SDS011;51603;49.300;8.880;2023-07-24T05:01:40;7.87;;;7.07;;
65035;SDS011;51603;49.300;8.880;2023-07-24T05:04:05;9.87;;;7.33;;
65035;SDS011;51603;49.300;8.880;2023-07-24T05:06:31;9.60;;;7.90;;
65035;SDS011;51603;49.300;8.880;2023-07-24T05:08:56;8.50;;;7.00;;
65035;SDS011;51603;49.300;8.880;2023-07-24T05:11:22;11.53;;;8.57;;
65035;SDS011;51603;49.300;8.880;2023-07-24T05:13:48;9.33;;;7.33;;
65035;SDS011;51603;49.300;8.880;2023-07-24T05:16:13;8.70;;;7.53;;
65035;SDS011;51603;49.300;8.880;2023-07-24T05:18:39;8.90;;;7.70;;
65035;SDS011;51603;49.300;8.880;2023-07-24T05:21:04;9.33;;;7.93;;
65035;SDS011;51603;49.300;8.880;2023-07-24T05:23:30;10.03;;;7.43;;
65035;SDS011;51603;49.300;8.880;2023-07-24T05:25:56;8.23;;;7.33;;
65035;SDS011;51603;49.300;8.880;2023-07-24T05:28:28;9.10;;;7.73;;
65035;SDS011;51603;49.300;8.880;2023-07-24T05:30:55;10.37;;;7.70;;
65035;SDS011;51603;49.300;8.880;2023-07-24T05:33:21;9.73;;;7.83;;
65035;SDS011;51603;49.300;8.880;2023-07-24T05:35:48;9.43;;;8.43;;
65035;SDS011;51603;49.300;8.880;2023-07-24T05:38:14;9.20;;;7.43;;
65035;SDS011;51603;49.300;8.880;2023-07-24T05:40:39;8.03;;;7.13;;
65035;SDS011;51603;49.300;8.880;2023-07-24T05:43:05;9.03;;;7.50;;
65035;SDS011;51603;49.300;8.880;2023-07-24T05:45:30;10.93;;;7.80;;
65035;SDS011;51603;49.300;8.880;2023-07-24T05:47:56;8.13;;;7.30;;
65035;SDS011;51603;49.300;8.880;2023-07-24T05:50:22;9.00;;;7.20;;
65035;SDS011;51603;49.300;8.880;2023-07-24T05:52:47;9.00;;;7.93;;
65035;SDS011;51603;49.300;8.880;2023-07-24T05:55:13;9.43;;;7.50;;
65035;SDS011;51603;49.300;8.880;2023-07-24T05:57:38;8.23;;;7.40;;
65035;SDS011;51603;49.300;8.880;2023-07-24T06:00:04;9.10;;;6.83;;
65035;SDS011;51603;49.300;8.880;2023-07-24T06:02:30;9.40;;;7.83;;
65035;SDS011;51603;49.300;8.880;2023-07-24T06:04:56;9.97;;;8.23;;
65035;SDS011;51603;49.300;8.880;2023-07-24T06:07:21;9.93;;;7.47;;
65035;SDS011;51603;49.300;8.880;2023-07-24T06:09:47;9.20;;;7.73;;
65035;SDS011;51603;49.300;8.880;2023-07-24T06:12:13;8.27;;;6.90;;
65035;SDS011;51603;49.300;8.880;2023-07-24T06:14:39;8.40;;;7.33;;
65035;SDS011;51603;49.300;8.880;2023-07-24T06:17:04;9.90;;;7.47;;
65035;SDS011;51603;49.300;8.880;2023-07-24T06:19:30;11.23;;;8.23;;
65035;SDS011;51603;49.300;8.880;2023-07-24T06:21:55;11.30;;;8.60;;
65035;SDS011;51603;49.300;8.880;2023-07-24T06:24:21;10.43;;;7.60;;
65035;SDS011;51603;49.300;8.880;2023-07-24T06:26:48;9.00;;;7.80;;
65035;SDS011;51603;49.300;8.880;2023-07-24T06:29:14;9.40;;;8.07;;
65035;SDS011;51603;49.300;8.880;2023-07-24T06:31:40;11.03;;;7.83;;
65035;SDS011;51603;49.300;8.880;2023-07-24T06:34:05;8.73;;;7.10;;
65035;SDS011;51603;49.300;8.880;2023-07-24T06:36:31;10.13;;;8.40;;
65035;SDS011;51603;49.300;8.880;2023-07-24T06:38:56;9.30;;;8.40;;
65035;SDS011;51603;49.300;8.880;2023-07-24T06:41:22;9.10;;;7.57;;
65035;SDS011;51603;49.300;8.880;2023-07-24T06:43:48;12.87;;;9.37;;
65035;SDS011;51603;49.300;8.880;2023-07-24T06:46:14;9.90;;;7.40;;
65035;SDS011;51603;49.300;8.880;2023-07-24T06:48:40;11.00;;;8.03;;
65035;SDS011;51603;49.300;8.880;2023-07-24T06:51:05;9.53;;;7.60;;
65035;SDS011;51603;49.300;8.880;2023-07-24T06:53:31;11.70;;;8.93;;
65035;SDS011;51603;49.300;8.880;2023-07-24T06:55:56;10.87;;;8.40;;
65035;SDS011;51603;49.300;8.880;2023-07-24T06:58:22;8.87;;;7.97;;
65035;SDS011;51603;49.300;8.880;2023-07-24T07:00:47;10.13;;;7.93;;
65035;SDS011;51603;49.300;8.880;2023-07-24T07:03:13;9.63;;;8.10;;
65035;SDS011;51603;49.300;8.880;2023-07-24T07:05:38;11.13;;;9.40;;
65035;SDS011;51603;49.300;8.880;2023-07-24T07:08:04;9.30;;;8.20;;
65035;SDS011;51603;49.300;8.880;2023-07-24T07:10:32;9.33;;;7.77;;
65035;SDS011;51603;49.300;8.880;2023-07-24T07:12:58;12.73;;;8.87;;
65035;SDS011;51603;49.300;8.880;2023-07-24T07:15:24;10.93;;;8.30;;
65035;SDS011;51603;49.300;8.880;2023-07-24T07:17:49;11.30;;;9.00;;
65035;SDS011;51603;49.300;8.880;2023-07-24T07:20:15;8.70;;;7.83;;
65035;SDS011;51603;49.300;8.880;2023-07-24T07:22:41;11.40;;;7.67;;
65035;SDS011;51603;49.300;8.880;2023-07-24T07:25:06;9.50;;;7.10;;
65035;SDS011;51603;49.300;8.880;2023-07-24T07:27:32;10.83;;;7.87;;
65035;SDS011;51603;49.300;8.880;2023-07-24T07:29:57;10.00;;;9.00;;
65035;SDS011;51603;49.300;8.880;2023-07-24T07:32:23;12.10;;;7.90;;
65035;SDS011;51603;49.300;8.880;2023-07-24T07:34:49;11.37;;;8.40;;
65035;SDS011;51603;49.300;8.880;2023-07-24T07:37:15;10.07;;;8.53;;
65035;SDS011;51603;49.300;8.880;2023-07-24T07:39:40;12.00;;;8.10;;
65035;SDS011;51603;49.300;8.880;2023-07-24T07:42:06;9.57;;;7.97;;
65035;SDS011;51603;49.300;8.880;2023-07-24T07:44:31;11.33;;;8.93;;
65035;SDS011;51603;49.300;8.880;2023-07-24T07:46:57;9.47;;;7.70;;
65035;SDS011;51603;49.300;8.880;2023-07-24T07:49:22;11.90;;;8.73;;
65035;SDS011;51603;49.300;8.880;2023-07-24T07:51:48;9.37;;;7.97;;
65035;SDS011;51603;49.300;8.880;2023-07-24T07:54:14;9.67;;;8.67;;
65035;SDS011;51603;49.300;8.880;2023-07-24T07:56:40;10.10;;;8.67;;
65035;SDS011;51603;49.300;8.880;2023-07-24T07:59:06;8.47;;;7.63;;
65035;SDS011;51603;49.300;8.880;2023-07-24T08:01:31;10.20;;;7.40;;
65035;SDS011;51603;49.300;8.880;2023-07-24T08:03:57;9.30;;;7.90;;
65035;SDS011;51603;49.300;8.880;2023-07-24T08:06:23;10.03;;;8.40;;
65035;SDS011;51603;49.300;8.880;2023-07-24T08:08:49;9.87;;;8.23;;
65035;SDS011;51603;49.300;8.880;2023-07-24T08:11:15;10.80;;;8.80;;
65035;SDS011;51603;49.300;8.880;2023-07-24T08:13:40;12.73;;;8.30;;
65035;SDS011;51603;49.300;8.880;2023-07-24T08:16:12;10.73;;;9.30;;
65035;SDS011;51603;49.300;8.880;2023-07-24T08:18:47;12.60;;;8.80;;
65035;SDS011;51603;49.300;8.880;2023-07-24T08:21:13;9.20;;;8.13;;
65035;SDS011;51603;49.300;8.880;2023-07-24T08:23:39;9.03;;;7.93;;
65035;SDS011;51603;49.300;8.880;2023-07-24T08:26:06;12.33;;;10.47;;
65035;SDS011;51603;49.300;8.880;2023-07-24T08:28:32;10.10;;;8.47;;
65035;SDS011;51603;49.300;8.880;2023-07-24T08:30:59;10.57;;;9.47;;
65035;SDS011;51603;49.300;8.880;2023-07-24T08:33:27;11.13;;;9.07;;
65035;SDS011;51603;49.300;8.880;2023-07-24T08:35:59;12.60;;;9.37;;
65035;SDS011;51603;49.300;8.880;2023-07-24T08:38:26;12.50;;;8.70;;
65035;SDS011;51603;49.300;8.880;2023-07-24T08:41:01;8.97;;;7.83;;
65035;SDS011;51603;49.300;8.880;2023-07-24T08:43:32;11.20;;;8.90;;
65035;SDS011;51603;49.300;8.880;2023-07-24T08:45:59;9.80;;;8.57;;
65035;SDS011;51603;49.300;8.880;2023-07-24T08:48:26;9.03;;;8.10;;
65035;SDS011;51603;49.300;8.880;2023-07-24T08:50:56;10.03;;;8.80;;
65035;SDS011;51603;49.300;8.880;2023-07-24T08:53:24;10.70;;;9.60;;
65035;SDS011;51603;49.300;8.880;2023-07-24T08:55:50;10.30;;;8.60;;
65035;SDS011;51603;49.300;8.880;2023-07-24T08:58:17;8.73;;;7.83;;
65035;SDS011;51603;49.300;8.880;2023-07-24T09:00:42;11.40;;;9.20;;
65035;SDS011;51603;49.300;8.880;2023-07-24T09:03:08;10.47;;;8.70;;
65035;SDS011;51603;49.300;8.880;2023-07-24T09:05:34;9.30;;;8.40;;
65035;SDS011;51603;49.300;8.880;2023-07-24T09:08:00;9.43;;;8.20;;
65035;SDS011;51603;49.300;8.880;2023-07-24T09:10:26;8.90;;;8.00;;
65035;SDS011;51603;49.300;8.880;2023-07-24T09:12:51;9.17;;;8.20;;
65035;SDS011;51603;49.300;8.880;2023-07-24T09:15:17;14.43;;;8.63;;
65035;SDS011;51603;49.300;8.880;2023-07-24T09:17:52;9.53;;;7.77;;
65035;SDS011;51603;49.300;8.880;2023-07-24T09:20:18;8.73;;;7.80;;
65035;SDS011;51603;49.300;8.880;2023-07-24T09:22:51;11.67;;;8.00;;
65035;SDS011;51603;49.300;8.880;2023-07-24T09:25:18;10.33;;;7.43;;
65035;SDS011;51603;49.300;8.880;2023-07-24T09:27:43;8.80;;;7.10;;
65035;SDS011;51603;49.300;8.880;2023-07-24T09:30:15;8.00;;;7.10;;
65035;SDS011;51603;49.300;8.880;2023-07-24T09:32:42;8.23;;;7.43;;
65035;SDS011;51603;49.300;8.880;2023-07-24T09:35:17;8.07;;;7.10;;
65035;SDS011;51603;49.300;8.880;2023-07-24T09:37:44;8.93;;;8.03;;
65035;SDS011;51603;49.300;8.880;2023-07-24T09:40:10;9.17;;;7.77;;
65035;SDS011;51603;49.300;8.880;2023-07-24T09:42:36;9.40;;;8.10;;
65035;SDS011;51603;49.300;8.880;2023-07-24T09:45:03;11.53;;;8.27;;
65035;SDS011;51603;49.300;8.880;2023-07-24T09:47:30;9.20;;;8.13;;
65035;SDS011;51603;49.300;8.880;2023-07-24T09:49:56;8.83;;;6.83;;
65035;SDS011;51603;49.300;8.880;2023-07-24T09:52:21;8.53;;;7.60;;
65035;SDS011;51603;49.300;8.880;2023-07-24T09:55:11;8.60;;;7.70;;
65035;SDS011;51603;49.300;8.880;2023-07-24T09:57:46;12.73;;;7.93;;
65035;SDS011;51603;49.300;8.880;2023-07-24T10:00:14;8.47;;;7.57;;
65035;SDS011;51603;49.300;8.880;2023-07-24T10:02:41;8.83;;;7.50;;
65035;SDS011;51603;49.300;8.880;2023-07-24T10:05:06;8.43;;;7.63;;
65035;SDS011;51603;49.300;8.880;2023-07-24T10:07:32;8.10;;;7.30;;
65035;SDS011;51603;49.300;8.880;2023-07-24T10:09:58;8.23;;;6.93;;
65035;SDS011;51603;49.300;8.880;2023-07-24T10:12:24;10.13;;;7.40;;
65035;SDS011;51603;49.300;8.880;2023-07-24T10:14:53;10.80;;;8.43;;
65035;SDS011;51603;49.300;8.880;2023-07-24T10:17:35;9.60;;;8.50;;
65035;SDS011;51603;49.300;8.880;2023-07-24T10:20:02;8.13;;;7.37;;
65035;SDS011;51603;49.300;8.880;2023-07-24T10:22:29;8.30;;;7.50;;
65035;SDS011;51603;49.300;8.880;2023-07-24T10:24:55;14.20;;;7.50;;
65035;SDS011;51603;49.300;8.880;2023-07-24T10:27:24;8.60;;;7.80;;
65035;SDS011;51603;49.300;8.880;2023-07-24T10:30:03;9.10;;;7.53;;
65035;SDS011;51603;49.300;8.880;2023-07-24T10:32:30;8.60;;;7.63;;
65035;SDS011;51603;49.300;8.880;2023-07-24T10:35:08;8.63;;;7.70;;
65035;SDS011;51603;49.300;8.880;2023-07-24T10:37:34;9.00;;;8.10;;
65035;SDS011;51603;49.300;8.880;2023-07-24T10:40:00;8.17;;;7.33;;
65035;SDS011;51603;49.300;8.880;2023-07-24T10:42:28;8.83;;;7.93;;
65035;SDS011;51603;49.300;8.880;2023-07-24T10:45:04;9.07;;;8.17;;
65035;SDS011;51603;49.300;8.880;2023-07-24T10:47:34;10.27;;;7.33;;
65035;SDS011;51603;49.300;8.880;2023-07-24T10:49:59;9.00;;;8.10;;
65035;SDS011;51603;49.300;8.880;2023-07-24T10:52:29;10.20;;;8.37;;
65035;SDS011;51603;49.300;8.880;2023-07-24T10:54:56;10.33;;;8.13;;
65035;SDS011;51603;49.300;8.880;2023-07-24T10:57:28;10.27;;;9.17;;
65035;SDS011;51603;49.300;8.880;2023-07-24T10:59:54;8.80;;;7.90;;
65035;SDS011;51603;49.300;8.880;2023-07-24T11:02:20;9.53;;;8.03;;
65035;SDS011;51603;49.300;8.880;2023-07-24T11:04:46;10.40;;;8.37;;
65035;SDS011;51603;49.300;8.880;2023-07-24T11:07:12;8.90;;;8.00;;
65035;SDS011;51603;49.300;8.880;2023-07-24T11:09:38;14.00;;;9.30;;
65035;SDS011;51603;49.300;8.880;2023-07-24T11:12:12;10.47;;;9.47;;
65035;SDS011;51603;49.300;8.880;2023-07-24T11:14:52;10.20;;;8.80;;
65035;SDS011;51603;49.300;8.880;2023-07-24T11:17:32;11.03;;;9.50;;
65035;SDS011;51603;49.300;8.880;2023-07-24T11:20:08;11.30;;;8.00;;
65035;SDS011;51603;49.300;8.880;2023-07-24T11:22:40;9.23;;;8.33;;
65035;SDS011;51603;49.300;8.880;2023-07-24T11:25:06;10.40;;;8.57;;
65035;SDS011;51603;49.300;8.880;2023-07-24T11:27:33;10.77;;;9.13;;
65035;SDS011;51603;49.300;8.880;2023-07-24T11:30:08;9.10;;;8.20;;
65035;SDS011;51603;49.300;8.880;2023-07-24T11:32:40;9.83;;;8.83;;
65035;SDS011;51603;49.300;8.880;2023-07-24T11:35:06;10.13;;;8.90;;
65035;SDS011;51603;49.300;8.880;2023-07-24T11:37:33;11.50;;;8.57;;
65035;SDS011;51603;49.300;8.880;2023-07-24T11:40:00;10.20;;;9.20;;
65035;SDS011;51603;49.300;8.880;2023-07-24T11:42:36;12.20;;;8.63;;
65035;SDS011;51603;49.300;8.880;2023-07-24T11:45:03;8.40;;;7.50;;
65035;SDS011;51603;49.300;8.880;2023-07-24T11:47:30;11.03;;;7.80;;
65035;SDS011;51603;49.300;8.880;2023-07-24T11:49:56;8.70;;;7.87;;
65035;SDS011;51603;49.300;8.880;2023-07-24T11:52:23;9.50;;;8.47;;
65035;SDS011;51603;49.300;8.880;2023-07-24T11:54:58;8.83;;;7.50;;
65035;SDS011;51603;49.300;8.880;2023-07-24T11:57:28;8.40;;;7.63;;
65035;SDS011;51603;49.300;8.880;2023-07-24T11:59:54;8.13;;;6.83;;
65035;SDS011;51603;49.300;8.880;2023-07-24T12:02:22;7.60;;;6.20;;
65035;SDS011;51603;49.300;8.880;2023-07-24T12:04:53;7.77;;;7.00;;
65035;SDS011;51603;49.300;8.880;2023-07-24T12:07:21;7.83;;;7.03;;
65035;SDS011;51603;49.300;8.880;2023-07-24T12:09:51;9.10;;;7.70;;
65035;SDS011;51603;49.300;8.880;2023-07-24T12:12:17;7.77;;;7.07;;
65035;SDS011;51603;49.300;8.880;2023-07-24T12:14:43;7.53;;;6.73;;
65035;SDS011;51603;49.300;8.880;2023-07-24T12:17:08;8.67;;;7.70;;
65035;SDS011;51603;49.300;8.880;2023-07-24T12:19:37;8.57;;;6.80;;
65035;SDS011;51603;49.300;8.880;2023-07-24T12:22:03;8.57;;;6.83;;
65035;SDS011;51603;49.300;8.880;2023-07-24T12:24:29;8.10;;;7.30;;
65035;SDS011;51603;49.300;8.880;2023-07-24T12:26:54;9.23;;;7.70;;
65035;SDS011;51603;49.300;8.880;2023-07-24T12:29:20;9.03;;;8.13;;
65035;SDS011;51603;49.300;8.880;2023-07-24T12:31:45;8.30;;;7.47;;
65035;SDS011;51603;49.300;8.880;2023-07-24T12:34:11;9.37;;;7.93;;
65035;SDS011;51603;49.300;8.880;2023-07-24T12:36:36;9.77;;;7.90;;
65035;SDS011;51603;49.300;8.880;2023-07-24T12:39:02;9.23;;;7.90;;
65035;SDS011;51603;49.300;8.880;2023-07-24T12:41:28;8.47;;;7.63;;
65035;SDS011;51603;49.300;8.880;2023-07-24T12:43:53;9.30;;;8.30;;
65035;SDS011;51603;49.300;8.880;2023-07-24T12:46:19;8.17;;;7.13;;
65035;SDS011;51603;49.300;8.880;2023-07-24T12:48:44;7.73;;;6.80;;
65035;SDS011;51603;49.300;8.880;2023-07-24T12:51:10;9.17;;;8.27;;
65035;SDS011;51603;49.300;8.880;2023-07-24T12:53:35;9.20;;;8.30;;
65035;SDS011;51603;49.300;8.880;2023-07-24T12:56:01;8.40;;;7.57;;
65035;SDS011;51603;49.300;8.880;2023-07-24T12:58:27;8.70;;;7.80;;
65035;SDS011;51603;49.300;8.880;2023-07-24T13:00:52;8.33;;;7.23;;
65035;SDS011;51603;49.300;8.880;2023-07-24T13:03:18;9.60;;;7.97;;
65035;SDS011;51603;49.300;8.880;2023-07-24T13:05:44;9.13;;;7.80;;
65035;SDS011;51603;49.300;8.880;2023-07-24T13:08:10;9.03;;;8.03;;
65035;SDS011;51603;49.300;8.880;2023-07-24T13:10:35;8.37;;;7.53;;
65035;SDS011;51603;49.300;8.880;2023-07-24T13:13:01;8.03;;;7.30;;
65035;SDS011;51603;49.300;8.880;2023-07-24T13:15:27;9.27;;;7.73;;
65035;SDS011;51603;49.300;8.880;2023-07-24T13:17:54;10.13;;;9.00;;
65035;SDS011;51603;49.300;8.880;2023-07-24T13:20:20;7.63;;;6.83;;
65035;SDS011;51603;49.300;8.880;2023-07-24T13:22:45;8.37;;;7.43;;
65035;SDS011;51603;49.300;8.880;2023-07-24T13:25:12;10.70;;;7.73;;
65035;SDS011;51603;49.300;8.880;2023-07-24T13:27:37;9.00;;;8.10;;
65035;SDS011;51603;49.300;8.880;2023-07-24T13:30:03;8.27;;;7.33;;
65035;SDS011;51603;49.300;8.880;2023-07-24T13:32:29;10.23;;;8.07;;
65035;SDS011;51603;49.300;8.880;2023-07-24T13:34:55;8.20;;;7.20;;
65035;SDS011;51603;49.300;8.880;2023-07-24T13:37:21;8.80;;;7.90;;
65035;SDS011;51603;49.300;8.880;2023-07-24T13:39:50;8.10;;;6.90;;
65035;SDS011;51603;49.300;8.880;2023-07-24T13:42:16;9.07;;;7.67;;
65035;SDS011;51603;49.300;8.880;2023-07-24T13:44:41;8.27;;;7.47;;
65035;SDS011;51603;49.300;8.880;2023-07-24T13:47:07;9.43;;;7.87;;
65035;SDS011;51603;49.300;8.880;2023-07-24T13:49:33;9.00;;;7.40;;
65035;SDS011;51603;49.300;8.880;2023-07-24T13:51:58;9.23;;;7.37;;
65035;SDS011;51603;49.300;8.880;2023-07-24T13:54:24;9.60;;;7.27;;
65035;SDS011;51603;49.300;8.880;2023-07-24T13:56:49;7.83;;;7.03;;
65035;SDS011;51603;49.300;8.880;2023-07-24T13:59:15;9.03;;;7.90;;
65035;SDS011;51603;49.300;8.880;2023-07-24T14:01:40;9.67;;;7.83;;
65035;SDS011;51603;49.300;8.880;2023-07-24T14:04:06;7.90;;;7.00;;
65035;SDS011;51603;49.300;8.880;2023-07-24T14:06:31;9.80;;;7.37;;
65035;SDS011;51603;49.300;8.880;2023-07-24T14:08:57;6.93;;;6.13;;
65035;SDS011;51603;49.300;8.880;2023-07-24T14:11:22;7.47;;;6.70;;
65035;SDS011;51603;49.300;8.880;2023-07-24T14:13:49;8.07;;;6.80;;
65035;SDS011;51603;49.300;8.880;2023-07-24T14:16:15;12.07;;;7.03;;
65035;SDS011;51603;49.300;8.880;2023-07-24T14:18:41;7.70;;;7.00;;
65035;SDS011;51603;49.300;8.880;2023-07-24T14:21:06;7.80;;;7.00;;
65035;SDS011;51603;49.300;8.880;2023-07-24T14:23:32;7.63;;;6.93;;
65035;SDS011;51603;49.300;8.880;2023-07-24T14:25:57;7.60;;;6.80;;
65035;SDS011;51603;49.300;8.880;2023-07-24T14:28:23;6.83;;;6.13;;
65035;SDS011;51603;49.300;8.880;2023-07-24T14:30:49;10.10;;;6.90;;
65035;SDS011;51603;49.300;8.880;2023-07-24T14:33:14;6.13;;;5.53;;
65035;SDS011;51603;49.300;8.880;2023-07-24T14:35:40;7.30;;;6.47;;
65035;SDS011;51603;49.300;8.880;2023-07-24T14:38:05;7.50;;;6.70;;
65035;SDS011;51603;49.300;8.880;2023-07-24T14:40:31;6.80;;;6.10;;
65035;SDS011;51603;49.300;8.880;2023-07-24T14:42:56;6.83;;;6.13;;
65035;SDS011;51603;49.300;8.880;2023-07-24T14:45:22;6.30;;;5.70;;
65035;SDS011;51603;49.300;8.880;2023-07-24T14:47:47;9.20;;;7.00;;
65035;SDS011;51603;49.300;8.880;2023-07-24T14:50:13;7.03;;;6.33;;